Aeroporto :
LOGIN :

Iscrizione | Disclaimer

   EN    FR    IT 

 










Sommario :    VFR   VFR Marginale   IFR   IFR Intensivo   IFR Molto Intensivo
Visibilità : 
Base nubi : 
>= 8 km
>= 3000ft
5 / 8 km
1000 / 3000 ft
1500m / 5 km
500 / 1000 ft
800 / 1500m
200 / 500 ft
< 800m
< 200 ft
Simboli :   Temporali  Nebbia  Neve Forte  Precipitazioni Forti  Vento > 20 kt
SIGMETs :   Varie  Temporali  Ghiacco  Turbolenza  Onda orograficha  Ceneri Vulcaniche






- Altitudine del aeroporto : 306 ft
- Codice IATA : EMA


EGNX - Nottingham East Midlands

ULTIMO METAR :
  • 061550Z 31015G27KT 9999 FEW028CB BKN036 14/06 Q0996

METARs OBSOLETI :
  • 061520Z 29015KT 9999 FEW028CB SCT045 13/07 Q0996
  • 061450Z 32013KT 9999 BKN027 BKN043CB 12/08 Q0996
  • 061420Z 28012KT 9999 VCSH SCT019 SCT030CB 12/08 Q0995 RERA
  • 061350Z 26018KT 9999 VCSH SCT019 SCT030CB 13/08 Q0995
  • 061320Z 29014G24KT 9999 VCSH FEW014 SCT025 SCT030CB 11/08 Q0995 RERA

TAF AMD TAF EGNX
Valido dal 06 a 12 ore il 07 a 12 ore UTC


061220Z 0612/0712 27017G27KT 9999 SCT020
BECMG 0612/0615 33017G27KT
TEMPO 0612/0620 7000 SHRA
PROB30
TEMPO 0612/0618 4000 +TSRA BKN014 BKN030CB
BECMG 0618/0621 29005KT
PROB30
TEMPO 0702/0709 BKN006
TEMPO 0706/0712 8000 -RA
BECMG 0708/0711 35010KT
PROB30
TEMPO 0709/0712 RA BKN009
ATIS : +44 1332 852 852 (ext 3201)



MetMap, La meteo Aeronautica in un colpo d'occhio ! - Copyright ORBIFLY Dicembre 2007 - Disclaimer

ORBIFLY MET'MAP TEAM :

Programmazione e sviluppo : Alexandra Zaïnal
Concezione : Baudouin d'Aumeries
Aiuto per la programmazione : Marc-Olivier Méhu
Supporto tecnico e logistico : Manuel Goepfert
Aiuto per la traduzione : Arnaldo La Scala

Contatto : metmap@orbifly.com




FONTI E CREDITI :

   NOAA